.
WxDataArchive / Data Records for 2008-06-06
2008-06-05 June 2008 2008-06-07

Data Records for Friday, 06 June 2008

Time	Temp	Chill	HIndex	Humid	Dewpt	 Wind 	HiWind	WindDir	Rain 	Barom 
-----	----	-----	------	-----	-----	------	------	-------	-----	----- 
00:00	75.3	75.3	75.9	81	69.1	0	0	---	0.00	29.859 
00:05	75.3	75.3	75.9	81	69.1	0	1	248	0.00	29.857 
00:10	75.1	75.1	75.6	81	68.9	0	1	248	0.00	29.856 
00:15	75.1	75.1	75.6	81	68.9	0	1	248	0.00	29.857 
00:20	75.1	75.1	75.6	81	68.9	0	1	248	0.00	29.857 
00:25	75.1	75.1	75.6	81	68.9	0	1	248	0.00	29.852 
00:30	75.1	75.1	75.6	81	68.9	0	1	248	0.00	29.856 
00:35	75.3	75.3	76.0	80	68.7	0	3	270	0.00	29.855 
00:40	75.4	75.4	76.1	80	68.8	0	1	270	0.00	29.853 
00:45	75.6	75.6	76.5	79	68.6	1	4	248	0.00	29.854 
00:50	75.6	75.6	76.6	78	68.2	0	1	248	0.00	29.851 
00:55	75.6	75.6	76.6	78	68.2	0	2	248	0.00	29.853 
01:00	75.8	75.8	76.9	78	68.4	0	2	248	0.00	29.853 
01:05	75.8	75.8	77.0	77	68.1	0	2	248	0.00	29.848 
01:10	75.8	75.8	77.0	77	68.1	0	4	248	0.00	29.849 
01:15	75.8	75.8	77.0	77	68.1	0	3	0	0.00	29.848 
01:20	76.0	76.0	77.2	77	68.3	1	5	315	0.00	29.851 
01:25	76.0	76.0	77.3	76	67.9	1	5	248	0.00	29.849 
01:30	76.1	76.1	77.4	76	68.0	0	3	248	0.00	29.849 
01:35	76.0	76.0	77.3	76	67.9	0	2	270	0.00	29.844 
01:40	76.0	76.0	77.3	76	67.9	0	1	270	0.00	29.846 
01:45	75.8	75.8	77.0	76	67.7	0	1	270	0.00	29.843 
01:50	75.6	75.6	76.8	76	67.5	0	4	248	0.00	29.845 
01:55	75.4	75.4	76.5	76	67.3	0	1	248	0.00	29.851 
02:00	75.4	75.4	76.4	77	67.7	0	1	248	0.00	29.849 
02:05	75.3	75.3	76.3	77	67.6	0	1	248	0.00	29.848 
02:10	75.1	75.1	76.1	77	67.4	0	1	248	0.00	29.847 
02:15	74.7	74.7	74.7	78	67.4	0	1	248	0.00	29.845 
02:20	74.6	74.6	74.6	79	67.6	0	1	248	0.00	29.847 
02:25	74.4	74.4	74.4	79	67.4	0	1	248	0.00	29.848 
02:30	74.4	74.4	74.4	79	67.4	0	2	248	0.00	29.850 
02:35	74.4	74.4	74.4	79	67.4	0	3	248	0.00	29.849 
02:40	74.4	74.4	74.4	79	67.4	0	1	248	0.00	29.850 
02:45	74.2	74.2	74.2	79	67.3	0	0	---	0.00	29.849 
02:50	74.0	74.0	74.0	80	67.4	0	1	248	0.00	29.853 
02:55	73.9	73.9	73.9	80	67.3	0	1	248	0.00	29.855 
03:00	73.9	73.9	73.9	80	67.3	0	1	248	0.00	29.859 
03:05	73.9	73.9	73.9	80	67.3	0	1	248	0.00	29.859 
03:10	73.5	73.5	73.5	80	66.9	0	0	---	0.00	29.858 
03:15	73.5	73.5	73.5	80	66.9	0	2	248	0.00	29.857 
03:20	73.3	73.3	73.3	81	67.1	0	1	248	0.00	29.861 
03:25	73.2	73.2	73.2	81	67.0	0	0	---	0.00	29.865 
03:30	73.0	73.0	73.0	81	66.8	0	0	---	0.00	29.867 
03:35	72.8	72.8	72.8	81	66.6	0	1	248	0.00	29.870 
03:40	72.8	72.8	72.8	81	66.6	0	2	248	0.00	29.873 
03:45	72.8	72.8	72.8	81	66.6	0	1	248	0.00	29.873 
03:50	72.8	72.8	72.8	81	66.6	0	1	248	0.00	29.872 
03:55	73.0	73.0	73.0	81	66.8	0	2	248	0.00	29.873 
04:00	73.2	73.2	73.2	80	66.6	0	1	248	0.00	29.875 
04:05	73.5	73.5	73.5	79	66.6	0	1	248	0.00	29.875 
04:10	73.7	73.7	73.7	79	66.8	0	2	248	0.00	29.874 
04:15	74.0	74.0	74.0	77	66.3	1	4	248	0.00	29.875 
04:20	74.2	74.2	74.2	77	66.5	0	3	248	0.00	29.876 
04:25	74.6	74.6	74.6	76	66.5	1	4	248	0.00	29.881 
04:30	74.6	74.6	74.6	75	66.1	1	3	248	0.00	29.882 
04:35	74.9	74.9	74.9	74	66.0	1	5	248	0.00	29.882 
04:40	75.1	75.1	76.4	74	66.2	1	4	270	0.00	29.879 
04:45	75.1	75.1	76.4	74	66.2	1	4	248	0.00	29.879 
04:50	75.4	75.4	76.8	73	66.1	1	5	248	0.00	29.886 
04:55	75.6	75.6	77.0	73	66.3	2	5	270	0.00	29.887 
05:00	75.8	75.8	77.3	72	66.1	2	5	248	0.00	29.883 
05:05	75.8	75.8	77.3	72	66.1	1	4	270	0.00	29.886 
05:10	75.8	75.8	77.3	72	66.1	1	6	248	0.00	29.887 
05:15	75.8	75.8	77.3	72	66.1	2	6	270	0.00	29.888 
05:20	75.8	75.8	77.3	72	66.1	1	7	270	0.00	29.886 
05:25	75.8	75.8	77.3	72	66.1	2	6	270	0.00	29.886 
05:30	75.8	75.8	77.3	72	66.1	1	4	248	0.00	29.887 
05:35	75.8	75.8	77.3	73	66.5	1	5	248	0.00	29.888 
05:40	75.8	75.8	77.3	72	66.1	2	5	270	0.00	29.888 
05:45	76.0	76.0	77.5	72	66.3	2	6	248	0.00	29.889 
05:50	76.0	76.0	77.5	72	66.3	1	5	90	0.00	29.889 
05:55	76.0	76.0	77.5	73	66.7	2	5	270	0.00	29.890 
06:00	76.0	76.0	77.5	73	66.7	1	3	292	0.00	29.891 
06:05	76.0	76.0	77.5	73	66.7	1	3	270	0.00	29.893 
06:10	76.0	76.0	77.5	73	66.7	1	3	248	0.00	29.893 
06:15	76.1	76.1	77.7	72	66.4	2	5	248	0.00	29.896 
06:20	76.5	76.5	78.1	72	66.8	1	3	248	0.00	29.894 
06:25	76.7	76.7	78.4	71	66.6	2	5	270	0.00	29.892 
06:30	76.8	76.8	78.5	71	66.7	2	5	248	0.00	29.894 
06:35	77.0	77.0	78.8	71	66.9	1	3	270	0.00	29.894 
06:40	77.2	77.2	79.0	71	67.0	2	7	248	0.00	29.893 
06:45	77.4	77.4	79.3	70	66.8	2	7	248	0.00	29.889 
06:50	77.6	77.6	79.5	70	67.0	1	6	270	0.00	29.892 
06:55	77.9	77.9	79.9	70	67.3	2	5	248	0.00	29.890 
07:00	78.5	78.5	80.7	69	67.5	2	6	248	0.00	29.891 
07:05	78.6	78.6	80.7	68	67.1	2	7	248	0.00	29.891 
07:10	79.0	79.0	81.3	68	67.5	2	6	270	0.00	29.898 
07:15	79.2	79.2	81.5	68	67.7	2	6	270	0.00	29.894 
07:20	79.4	79.4	81.7	67	67.5	2	7	270	0.00	29.894 
07:25	79.4	79.4	81.7	67	67.5	2	5	270	0.00	29.897 
07:30	79.8	79.8	82.3	67	67.8	1	6	248	0.00	29.892 
07:35	79.9	79.9	82.5	67	67.9	2	7	270	0.00	29.894 
07:40	80.1	80.1	82.6	66	67.7	2	9	248	0.00	29.897 
07:45	80.3	80.3	82.8	65	67.4	3	8	270	0.00	29.896 
07:50	80.7	80.7	83.5	66	68.3	2	6	248	0.00	29.901 
07:55	80.7	80.7	83.4	65	67.8	2	9	248	0.00	29.900 
08:00	81.1	81.1	84.0	65	68.2	2	7	248	0.00	29.901 
08:05	81.1	81.1	84.0	65	68.2	2	6	248	0.00	29.904 
08:10	81.2	81.2	84.1	65	68.3	2	9	270	0.00	29.903 
08:15	81.2	81.2	84.1	65	68.3	3	10	248	0.00	29.903 
08:20	81.2	81.2	84.1	65	68.3	2	6	248	0.00	29.903 
08:25	81.4	81.4	84.3	64	68.0	3	6	270	0.00	29.904 
08:30	81.6	81.6	84.4	63	67.8	2	9	270	0.00	29.900 
08:35	81.8	81.8	84.7	63	67.9	3	6	248	0.00	29.902 
08:40	81.8	81.8	84.5	62	67.5	3	11	292	0.00	29.893 
08:45	82.2	82.2	85.5	64	68.8	2	5	270	0.00	29.893 
08:50	82.6	82.6	85.5	61	67.8	3	14	270	0.00	29.888 
08:55	82.8	82.8	86.1	62	68.4	3	10	270	0.00	29.883 
09:00	83.0	83.0	86.6	63	69.1	2	6	248	0.00	29.876 
09:05	83.4	83.4	86.5	60	68.0	3	12	90	0.00	29.874 
09:10	83.8	83.8	87.5	61	68.9	2	12	90	0.00	29.874 
09:15	84.1	84.1	88.0	61	69.2	2	5	248	0.00	29.872 
09:20	84.5	84.5	88.1	59	68.6	3	9	112	0.00	29.864 
09:25	84.7	84.7	88.4	59	68.8	2	8	112	0.00	29.863 
09:30	84.9	84.9	88.5	58	68.4	2	6	248	0.00	29.867 
09:35	85.1	85.1	89.4	60	69.6	2	5	68	0.00	29.861 
09:40	85.3	85.3	88.8	57	68.3	2	6	270	0.00	29.858 
09:45	85.1	85.1	88.8	58	68.6	3	10	248	0.00	29.858 
09:50	85.5	85.5	89.2	57	68.5	3	7	270	0.00	29.858 
09:55	85.7	85.7	89.5	57	68.7	3	9	270	0.00	29.859 
10:00	86.1	86.1	90.2	57	69.1	2	6	90	0.00	29.857 
10:05	86.3	86.3	89.9	55	68.2	2	5	270	0.00	29.857 
10:10	86.3	86.3	90.2	56	68.7	3	7	270	0.00	29.857 
10:15	86.5	86.5	89.6	53	67.3	3	12	270	0.00	29.860 
10:20	86.3	86.3	89.6	54	67.7	4	15	270	0.00	29.858 
10:25	86.5	86.5	89.6	53	67.3	3	12	248	0.00	29.855 
10:30	87.0	87.0	90.4	53	67.8	4	11	90	0.00	29.842 
10:35	87.2	87.2	91.5	55	69.0	3	12	112	0.00	29.856 
10:40	87.2	87.2	89.7	50	66.3	5	13	270	0.00	29.859 
10:45	86.7	86.7	89.6	52	66.9	5	12	270	0.00	29.856 
10:50	87.4	87.4	90.7	52	67.6	3	11	68	0.00	29.859 
10:55	87.6	87.6	90.4	50	66.6	3	7	270	0.00	29.856 
11:00	87.6	87.6	91.5	53	68.3	3	8	248	0.00	29.858 
11:05	87.8	87.8	90.4	49	66.2	4	11	68	0.00	29.861 
11:10	87.8	87.8	90.7	50	66.8	3	7	270	0.00	29.861 
11:15	88.2	88.2	91.0	49	66.6	3	6	270	0.00	29.859 
11:20	88.2	88.2	91.4	50	67.2	3	11	270	0.00	29.861 
11:25	88.4	88.4	90.3	46	64.9	4	10	270	0.00	29.863 
11:30	88.4	88.4	91.3	49	66.8	4	12	270	0.00	29.859 
11:35	88.6	88.6	92.1	50	67.5	3	7	270	0.00	29.858 
11:40	88.6	88.6	91.3	48	66.4	3	7	270	0.00	29.857 
11:45	88.6	88.6	91.0	47	65.7	4	14	45	0.00	29.855 
11:50	88.4	88.4	91.3	49	66.8	4	10	270	0.00	29.857 
11:55	88.4	88.4	91.3	49	66.8	5	14	270	0.00	29.856 
12:00	89.0	89.0	92.8	50	67.9	3	15	270	0.00	29.855 
12:05	89.3	89.3	92.1	47	66.4	4	10	248	0.00	29.856 
12:10	88.6	88.6	92.1	50	67.5	4	12	270	0.00	29.858 
12:15	89.0	89.0	92.0	48	66.7	4	11	270	0.00	29.857 
12:20	88.8	88.8	90.9	46	65.3	6	12	270	0.00	29.856 
12:25	88.8	88.8	91.3	47	65.9	4	13	248	0.00	29.856 
12:30	89.0	89.0	92.4	49	67.3	4	10	270	0.00	29.856 
12:35	89.5	89.5	93.2	49	67.8	3	12	270	0.00	29.855 
12:40	89.3	89.3	92.1	47	66.4	4	11	270	0.00	29.852 
12:45	89.5	89.5	92.4	47	66.6	5	15	248	0.00	29.853 
12:50	89.5	89.5	92.8	48	67.2	5	18	270	0.00	29.853 
12:55	89.5	89.5	92.1	46	65.9	6	14	270	0.00	29.851 
13:00	89.7	89.7	92.4	46	66.1	5	14	270	0.00	29.849 
13:05	89.5	89.5	92.1	46	65.9	5	15	270	0.00	29.855 
13:10	89.9	89.9	92.7	46	66.3	4	12	248	0.00	29.854 
13:15	89.7	89.7	92.0	45	65.5	5	12	248	0.00	29.843 
13:20	89.9	89.9	92.7	46	66.3	3	9	270	0.00	29.847 
13:25	90.1	90.1	94.3	49	68.3	3	10	270	0.00	29.843 
13:30	90.1	90.1	92.7	45	65.9	4	12	270	0.00	29.846 
13:35	90.1	90.1	93.1	46	66.5	4	14	248	0.00	29.841 
13:40	90.1	90.1	91.9	43	64.5	4	10	270	0.00	29.839 
13:45	90.1	90.1	92.3	44	65.2	3	7	68	0.00	29.840 
13:50	90.3	90.3	93.0	45	66.0	4	10	292	0.00	29.839 
13:55	90.3	90.3	93.4	46	66.7	5	13	270	0.00	29.838 
14:00	89.5	89.5	91.7	45	65.3	5	12	270	0.00	29.835 
14:05	89.7	89.7	92.4	46	66.1	4	12	270	0.00	29.829 
14:10	90.1	90.1	91.9	43	64.5	4	9	270	0.00	29.833 
14:15	90.1	90.1	91.9	43	64.5	5	14	270	0.00	29.829 
14:20	90.3	90.3	92.2	43	64.7	5	20	270	0.00	29.827 
14:25	90.1	90.1	92.3	44	65.2	5	20	248	0.00	29.829 
14:30	90.5	90.5	92.5	43	64.9	4	12	270	0.00	29.827 
14:35	90.5	90.5	93.8	46	66.8	3	10	270	0.00	29.827 
14:40	90.7	90.7	93.3	44	65.7	4	14	248	0.00	29.830 
14:45	90.7	90.7	93.7	45	66.4	4	13	270	0.00	29.825 
14:50	90.7	90.7	93.3	44	65.7	4	13	270	0.00	29.828 
14:55	91.0	91.0	93.4	43	65.4	5	13	270	0.00	29.827 
15:00	91.0	91.0	93.4	43	65.4	3	6	270	0.00	29.825 
15:05	91.0	91.0	94.2	45	66.7	3	11	248	0.00	29.822 
15:10	90.7	90.7	93.7	45	66.4	3	10	270	0.00	29.822 
15:15	89.9	89.9	91.9	44	65.0	4	13	270	0.00	29.823 
15:20	89.5	89.5	92.4	47	66.6	3	12	248	0.00	29.822 
15:25	89.7	89.7	92.4	46	66.1	3	9	270	0.00	29.817 
15:30	89.7	89.7	92.4	46	66.1	5	13	270	0.00	29.813 
15:35	89.9	89.9	92.7	46	66.3	4	11	270	0.00	29.811 
15:40	90.1	90.1	93.1	46	66.5	3	9	270	0.00	29.812 
15:45	90.3	90.3	93.0	45	66.0	3	10	248	0.00	29.815 
15:50	90.1	90.1	93.1	46	66.5	4	9	270	0.00	29.812 
15:55	90.5	90.5	93.8	46	66.8	2	11	270	0.00	29.808 
16:00	90.5	90.5	93.3	45	66.2	4	10	270	0.00	29.809 
16:05	90.7	90.7	94.1	46	67.0	3	10	270	0.00	29.807 
16:10	90.7	90.7	94.5	47	67.7	2	7	292	0.00	29.808 
16:15	89.9	89.9	92.7	46	66.3	4	15	248	0.00	29.805 
16:20	88.8	88.8	91.6	48	66.5	4	12	292	0.00	29.808 
16:25	88.4	88.4	90.6	47	65.6	3	11	270	0.00	29.806 
16:30	88.6	88.6	91.0	47	65.7	3	7	270	0.00	29.801 
16:35	88.4	88.4	91.3	49	66.8	3	12	270	0.00	29.804 
16:40	88.2	88.2	91.0	49	66.6	3	13	270	0.00	29.802 
16:45	88.0	88.0	91.0	50	67.0	3	12	270	0.00	29.801 
16:50	88.2	88.2	91.0	49	66.6	4	12	248	0.00	29.801 
16:55	88.0	88.0	90.0	47	65.2	5	11	270	0.00	29.800 
17:00	87.6	87.6	89.4	47	64.8	4	12	270	0.00	29.797 
17:05	88.0	88.0	90.0	47	65.2	3	7	248	0.00	29.800 
17:10	88.0	88.0	90.0	47	65.2	4	13	270	0.00	29.807 
17:15	87.8	87.8	90.0	48	65.6	4	10	248	0.00	29.804 
17:20	87.8	87.8	90.0	48	65.6	3	12	248	0.00	29.807 
17:25	88.2	88.2	90.3	47	65.4	4	11	270	0.00	29.809 
17:30	88.0	88.0	90.3	48	65.8	3	12	270	0.00	29.808 
17:35	87.6	87.6	90.0	49	66.0	4	17	248	0.00	29.808 
17:40	87.2	87.2	89.4	49	65.7	3	10	248	0.00	29.809 
17:45	87.0	87.0	89.4	50	66.1	3	13	270	0.00	29.810 
17:50	86.7	86.7	88.9	50	65.8	3	7	270	0.00	29.806 
17:55	86.7	86.7	88.9	50	65.8	2	10	248	0.00	29.810 
18:00	86.5	86.5	88.9	51	66.2	3	9	248	0.00	29.810 
18:05	86.5	86.5	88.6	50	65.6	3	9	248	0.00	29.809 
18:10	86.5	86.5	88.6	50	65.6	3	11	270	0.00	29.806 
18:15	86.5	86.5	88.9	51	66.2	2	5	270	0.00	29.806 
18:20	86.3	86.3	88.3	50	65.4	1	4	270	0.00	29.810 
18:25	86.1	86.1	88.3	51	65.8	1	5	270	0.00	29.823 
18:30	86.1	86.1	88.6	52	66.4	1	14	270	0.00	29.824 
18:35	86.3	86.3	88.6	51	66.0	3	10	270	0.00	29.826 
18:40	86.1	86.1	88.3	51	65.8	4	13	248	0.00	29.824 
18:45	85.9	85.9	88.3	52	66.2	3	7	270	0.00	29.824 
18:50	85.7	85.7	88.0	52	66.0	3	9	248	0.00	29.828 
18:55	85.5	85.5	87.7	52	65.8	3	7	270	0.00	29.827 
19:00	85.5	85.5	87.7	52	65.8	3	10	270	0.00	29.828 
19:05	85.3	85.3	88.0	54	66.7	4	12	270	0.00	29.833 
19:10	82.2	82.2	85.7	65	69.2	6	17	270	0.01	29.863 
19:15	77.9	77.9	80.0	74	68.9	4	13	270	0.04	29.883 
19:20	74.0	74.0	74.0	77	66.3	3	10	248	0.01	29.923 
19:25	72.3	72.3	72.3	81	66.1	6	12	270	0.01	29.938 
19:30	71.6	71.6	71.6	82	65.8	4	13	270	0.01	29.929 
19:35	70.9	70.9	70.9	82	65.1	2	5	248	0.00	29.905 
19:40	70.4	70.4	70.4	82	64.6	1	6	248	0.00	29.879 
19:45	70.3	70.3	70.3	83	64.9	1	4	248	0.00	29.878 
19:50	70.1	70.1	70.1	84	65.0	0	2	248	0.01	29.861 
19:55	70.1	70.1	70.1	85	65.4	0	2	225	0.00	29.850 
20:00	70.3	70.3	70.3	85	65.6	0	3	180	0.00	29.830 
20:05	70.1	70.1	70.1	87	66.0	0	1	180	0.00	29.834 
20:10	69.8	69.8	69.8	88	66.1	0	2	158	0.01	29.832 
20:15	69.6	69.6	69.6	88	65.9	0	2	158	0.00	29.845 
20:20	69.3	69.3	69.3	88	65.6	0	2	225	0.00	29.843 
20:25	69.1	69.1	69.1	88	65.4	0	2	270	0.00	29.844 
20:30	68.9	68.9	68.9	87	64.9	1	2	270	0.00	29.849 
20:35	68.8	68.8	68.8	86	64.4	1	5	248	0.00	29.847 
20:40	68.6	68.6	68.6	86	64.2	0	2	248	0.00	29.853 
20:45	68.4	68.4	68.4	86	64.0	1	4	248	0.00	29.862 
20:50	68.4	68.4	68.4	86	64.0	1	3	270	0.00	29.864 
20:55	68.3	68.3	68.3	86	63.9	1	3	248	0.00	29.867 
21:00	68.3	68.3	68.3	86	63.9	1	5	270	0.00	29.868 
21:05	68.3	68.3	68.3	85	63.6	1	6	225	0.00	29.867 
21:10	68.3	68.3	68.3	85	63.6	1	4	292	0.00	29.867 
21:15	68.3	68.3	68.3	85	63.6	1	4	45	0.00	29.869 
21:20	68.3	68.3	68.3	85	63.6	1	5	270	0.00	29.866 
21:25	68.4	68.4	68.4	84	63.4	1	5	315	0.00	29.863 
21:30	68.4	68.4	68.4	85	63.7	0	2	315	0.00	29.860 
21:35	68.3	68.3	68.3	85	63.6	0	1	315	0.00	29.865 
21:40	68.3	68.3	68.3	86	63.9	0	1	315	0.00	29.890 
21:45	68.1	68.1	68.1	86	63.7	0	2	315	0.00	29.896 
21:50	68.1	68.1	68.1	87	64.1	0	3	315	0.00	29.894 
21:55	68.1	68.1	68.1	86	63.7	1	4	270	0.00	29.893 
22:00	68.1	68.1	68.1	86	63.7	0	2	270	0.00	29.895 
22:05	68.1	68.1	68.1	87	64.1	0	2	270	0.00	29.896 
22:10	68.1	68.1	68.1	86	63.7	0	1	270	0.00	29.900 
22:15	68.1	68.1	68.1	86	63.7	0	2	270	0.00	29.894 
22:20	68.1	68.1	68.1	86	63.7	0	1	270	0.00	29.894 
22:25	68.1	68.1	68.1	86	63.7	0	1	270	0.00	29.891 
22:30	68.1	68.1	68.1	86	63.7	0	2	270	0.00	29.892 
22:35	68.3	68.3	68.3	86	63.9	0	1	270	0.00	29.887 
22:40	68.3	68.3	68.3	86	63.9	0	2	270	0.00	29.885 
22:45	68.3	68.3	68.3	86	63.9	0	0	---	0.00	29.877 
22:50	68.3	68.3	68.3	86	63.9	0	1	270	0.00	29.876 
22:55	68.3	68.3	68.3	86	63.9	0	1	270	0.00	29.870 
23:00	68.3	68.3	68.3	86	63.9	0	1	270	0.00	29.872 
23:05	68.3	68.3	68.3	86	63.9	0	1	270	0.00	29.874 
23:10	68.3	68.3	68.3	86	63.9	0	1	270	0.00	29.879 
23:15	68.4	68.4	68.4	86	64.0	0	1	270	0.00	29.887 
23:20	68.6	68.6	68.6	86	64.2	0	1	270	0.00	29.890 
23:25	68.6	68.6	68.6	86	64.2	0	1	270	0.00	29.880 
23:30	68.6	68.6	68.6	86	64.2	0	1	270	0.00	29.879 
23:35	69.1	69.1	69.1	86	64.7	0	2	270	0.00	29.886 
23:40	69.3	69.3	69.3	85	64.6	0	2	270	0.00	29.887 
23:45	69.4	69.4	69.4	85	64.7	0	2	248	0.00	29.889 
23:50	69.4	69.4	69.4	85	64.7	0	1	248	0.00	29.885 
23:55	69.6	69.6	69.6	85	64.9	0	1	248	0.00	29.884 

CoCoRaHS
IN-AL-39
A2 Web Hosting
Creative Commons License
GoDaddy
Look for:

loaded 2017-12-12 01:33:16 • last modified 2010-11-18 10:43:29
Privacy PolicyDisclaimer
• wx.awcolley.com is powered by PmWiki v.2002016 •
• all content (unless otherwise noted) © 2017 A W Colley